Time,TemperatureF,DewpointF,PressureIn,WindDirection,WindDirectionDegrees,WindSpeedMPH,WindSpeedGustMPH,Humidity,HourlyPrecipIn,Conditions,Clouds,dailyrainin,SolarRadiationWatts/m^2,SoftwareType,DateUTC
2013-05-07 00:02:00,35.0,33.0,-100.00,NE,35,0.0,0.0,94,0.00,,,0.00,0.000000,,2013-05-07 05:02:00,
2013-05-07 00:32:00,35.0,33.0,-100.00,NE,35,0.0,0.0,94,0.00,,,0.00,0.000000,,2013-05-07 05:32:00,
2013-05-07 00:42:00,35.0,33.0,-100.00,NE,35,0.0,0.0,94,0.00,,,0.00,0.000000,,2013-05-07 05:42:00,
2013-05-07 00:52:00,35.0,33.0,-100.00,NE,35,0.0,0.0,94,0.00,,,0.00,0.000000,,2013-05-07 05:52:00,
2013-05-07 01:02:00,34.0,32.0,-100.00,SSE,153,0.0,0.0,94,0.00,,,0.00,0.000000,,2013-05-07 06:02:00,
2013-05-07 01:22:00,34.0,32.0,-100.00,SSE,153,0.0,0.0,94,0.00,,,0.00,0.000000,,2013-05-07 06:22:00,
2013-05-07 01:32:00,34.0,32.0,-100.00,SSE,153,0.0,0.0,94,0.00,,,0.00,0.000000,,2013-05-07 06:32:00,
2013-05-07 01:42:00,34.0,32.0,-100.00,SSE,153,0.0,0.0,94,0.00,,,0.00,0.000000,,2013-05-07 06:42:00,
2013-05-07 01:52:00,34.0,32.0,-100.00,SSE,153,0.0,0.0,94,0.00,,,0.00,0.000000,,2013-05-07 06:52:00,
2013-05-07 02:02:00,33.0,32.0,-100.00,NE,42,0.0,0.0,95,0.00,,,0.00,0.000000,,2013-05-07 07:02:00,
2013-05-07 02:32:00,33.0,32.0,-100.00,NE,42,0.0,0.0,95,0.00,,,0.00,0.000000,,2013-05-07 07:32:00,
2013-05-07 02:42:00,33.0,32.0,-100.00,NE,42,0.0,0.0,95,0.00,,,0.00,0.000000,,2013-05-07 07:42:00,
2013-05-07 02:52:00,33.0,32.0,-100.00,NE,42,0.0,0.0,95,0.00,,,0.00,0.000000,,2013-05-07 07:52:00,
2013-05-07 03:32:00,33.0,32.0,-100.00,NW,313,0.0,0.0,96,0.00,,,0.00,0.000000,,2013-05-07 08:32:00,
2013-05-07 03:42:00,33.0,32.0,-100.00,NW,313,0.0,0.0,96,0.00,,,0.00,0.000000,,2013-05-07 08:42:00,
2013-05-07 03:52:00,33.0,32.0,-100.00,NW,313,0.0,0.0,96,0.00,,,0.00,0.000000,,2013-05-07 08:52:00,
2013-05-07 04:01:00,33.0,32.0,-100.00,NW,313,0.0,0.0,96,0.00,,,0.00,0.000000,,2013-05-07 09:01:00,
2013-05-07 04:02:00,32.0,31.0,-100.00,NE,43,0.0,2.0,97,0.00,,,0.00,0.000000,,2013-05-07 09:02:00,
2013-05-07 04:33:00,32.0,31.0,-100.00,NE,43,0.0,2.0,97,0.00,,,0.00,0.000000,,2013-05-07 09:33:00,
2013-05-07 04:43:00,32.0,31.0,-100.00,NE,43,0.0,2.0,97,0.00,,,0.00,0.000000,,2013-05-07 09:43:00,
2013-05-07 04:52:00,32.0,31.0,-100.00,NE,43,0.0,2.0,97,0.00,,,0.00,0.000000,,2013-05-07 09:52:00,
2013-05-07 05:02:00,31.0,30.0,-100.00,East,82,0.0,0.0,97,0.00,,,0.00,0.000000,,2013-05-07 10:02:00,
2013-05-07 05:23:00,31.0,30.0,-100.00,East,82,0.0,0.0,97,0.00,,,0.00,0.000000,,2013-05-07 10:23:00,
2013-05-07 05:32:00,31.0,30.0,-100.00,East,82,0.0,0.0,97,0.00,,,0.00,0.000000,,2013-05-07 10:32:00,
2013-05-07 05:42:00,31.0,30.0,-100.00,East,82,0.0,0.0,97,0.00,,,0.00,0.000000,,2013-05-07 10:42:00,
2013-05-07 05:52:00,31.0,30.0,-100.00,East,82,0.0,0.0,97,0.00,,,0.00,0.000000,,2013-05-07 10:52:00,
2013-05-07 06:02:00,31.0,30.0,-100.00,ENE,74,0.0,0.0,97,0.00,,,0.00,5.000000,,2013-05-07 11:02:00,
2013-05-07 06:32:00,31.0,30.0,-100.00,ENE,74,0.0,0.0,97,0.00,,,0.00,5.000000,,2013-05-07 11:32:00,
2013-05-07 06:42:00,31.0,30.0,-100.00,ENE,74,0.0,0.0,97,0.00,,,0.00,5.000000,,2013-05-07 11:42:00,
2013-05-07 06:52:00,31.0,30.0,-100.00,ENE,74,0.0,0.0,97,0.00,,,0.00,5.000000,,2013-05-07 11:52:00,
2013-05-07 07:02:00,37.0,36.0,-100.00,ESE,109,0.0,0.0,97,0.00,,,0.00,67.000000,,2013-05-07 12:02:00,
2013-05-07 07:22:00,37.0,36.0,-100.00,ESE,109,0.0,0.0,97,0.00,,,0.00,67.000000,,2013-05-07 12:22:00,
2013-05-07 07:32:00,37.0,36.0,-100.00,ESE,109,0.0,0.0,97,0.00,,,0.00,67.000000,,2013-05-07 12:32:00,
2013-05-07 07:42:00,37.0,36.0,-100.00,ESE,109,0.0,0.0,97,0.00,,,0.00,67.000000,,2013-05-07 12:42:00,
2013-05-07 07:52:00,37.0,36.0,-100.00,ESE,109,0.0,0.0,97,0.00,,,0.00,67.000000,,2013-05-07 12:52:00,
2013-05-07 08:02:00,52.0,44.0,-100.00,SE,124,2.0,2.0,75,0.00,,,-99.99,269.000000,,2013-05-07 13:02:00,
2013-05-07 08:32:00,52.0,44.0,-100.00,SE,124,2.0,2.0,75,0.00,,,-99.99,269.000000,,2013-05-07 13:32:00,
2013-05-07 08:42:00,52.0,44.0,-100.00,SE,124,2.0,2.0,75,0.00,,,-99.99,269.000000,,2013-05-07 13:42:00,
2013-05-07 08:52:00,52.0,44.0,-100.00,SE,124,2.0,2.0,75,0.00,,,-99.99,269.000000,,2013-05-07 13:52:00,
2013-05-07 09:32:00,65.0,41.0,-100.00,SSE,153,3.0,6.0,42,0.00,,,0.00,473.000000,,2013-05-07 14:32:00,
2013-05-07 09:42:00,65.0,41.0,-100.00,SSE,153,3.0,6.0,42,0.00,,,0.00,473.000000,,2013-05-07 14:42:00,
2013-05-07 09:52:00,65.0,41.0,-100.00,SSE,153,3.0,6.0,42,0.00,,,0.00,473.000000,,2013-05-07 14:52:00,
2013-05-07 10:01:00,65.0,41.0,-100.00,SSE,153,3.0,6.0,42,0.00,,,0.00,473.000000,,2013-05-07 15:01:00,
2013-05-07 10:02:00,71.0,42.0,-100.00,SSE,165,3.0,5.0,35,0.00,,,0.00,667.000000,,2013-05-07 15:02:00,
2013-05-07 10:33:00,71.0,42.0,-100.00,SSE,165,3.0,5.0,35,0.00,,,0.00,667.000000,,2013-05-07 15:33:00,
2013-05-07 10:42:00,71.0,42.0,-100.00,SSE,165,3.0,5.0,35,0.00,,,0.00,667.000000,,2013-05-07 15:42:00,
2013-05-07 10:53:00,71.0,42.0,-100.00,SSE,165,3.0,5.0,35,0.00,,,0.00,667.000000,,2013-05-07 15:53:00,
2013-05-07 13:02:00,74.0,37.0,-100.00,NW,315,5.0,10.0,26,-99.99,,,0.00,856.000000,,2013-05-07 18:02:00,
2013-05-07 13:32:00,74.0,37.0,-100.00,NW,315,5.0,10.0,26,-99.99,,,0.00,856.000000,,2013-05-07 18:32:00,
2013-05-07 13:42:00,74.0,37.0,-100.00,NW,315,5.0,10.0,26,-99.99,,,0.00,856.000000,,2013-05-07 18:42:00,
2013-05-07 13:52:00,74.0,37.0,-100.00,NW,315,5.0,10.0,26,-99.99,,,0.00,856.000000,,2013-05-07 18:52:00,
2013-05-07 14:02:00,75.0,35.0,-100.00,SW,231,3.0,10.0,23,0.00,,,0.00,552.000000,,2013-05-07 19:02:00,
2013-05-07 14:32:00,75.0,35.0,-100.00,SW,231,3.0,10.0,23,0.00,,,0.00,552.000000,,2013-05-07 19:32:00,
2013-05-07 14:42:00,75.0,35.0,-100.00,SW,231,3.0,10.0,23,0.00,,,0.00,552.000000,,2013-05-07 19:42:00,
2013-05-07 14:52:00,75.0,35.0,-100.00,SW,231,3.0,10.0,23,0.00,,,0.00,552.000000,,2013-05-07 19:52:00,
2013-05-07 15:32:00,77.0,34.0,-100.00,SW,220,5.0,11.0,21,0.00,,,0.00,938.000000,,2013-05-07 20:32:00,
2013-05-07 15:42:00,77.0,34.0,-100.00,SW,220,5.0,11.0,21,0.00,,,0.00,938.000000,,2013-05-07 20:42:00,
2013-05-07 15:52:00,77.0,34.0,-100.00,SW,220,5.0,11.0,21,0.00,,,0.00,938.000000,,2013-05-07 20:52:00,
2013-05-07 16:01:00,77.0,34.0,-100.00,SW,220,5.0,11.0,21,0.00,,,0.00,938.000000,,2013-05-07 21:01:00,
2013-05-07 16:02:00,77.0,35.0,-100.00,South,172,3.0,11.0,22,0.00,,,0.00,716.000000,,2013-05-07 21:02:00,
2013-05-07 16:22:00,77.0,35.0,-100.00,South,172,3.0,11.0,22,0.00,,,0.00,716.000000,,2013-05-07 21:22:00,
2013-05-07 16:33:00,77.0,35.0,-100.00,South,172,3.0,11.0,22,0.00,,,0.00,716.000000,,2013-05-07 21:33:00,
2013-05-07 16:43:00,77.0,35.0,-100.00,South,172,3.0,11.0,22,0.00,,,0.00,716.000000,,2013-05-07 21:43:00,
2013-05-07 16:53:00,77.0,35.0,-100.00,South,172,3.0,11.0,22,0.00,,,0.00,716.000000,,2013-05-07 21:53:00,
2013-05-07 17:02:00,74.0,34.0,-100.00,SSE,160,4.0,9.0,23,0.00,,,0.00,330.000000,,2013-05-07 22:02:00,
2013-05-07 17:33:00,74.0,34.0,-100.00,SSE,160,4.0,9.0,23,0.00,,,0.00,330.000000,,2013-05-07 22:33:00,
2013-05-07 17:42:00,74.0,34.0,-100.00,SSE,160,4.0,9.0,23,0.00,,,0.00,330.000000,,2013-05-07 22:42:00,
2013-05-07 17:52:00,74.0,34.0,-100.00,SSE,160,4.0,9.0,23,0.00,,,0.00,330.000000,,2013-05-07 22:52:00,
2013-05-07 18:02:00,78.0,35.0,-100.00,SSE,161,5.0,9.0,21,0.00,,,0.00,448.000000,,2013-05-07 23:02:00,
2013-05-07 18:22:00,78.0,35.0,-100.00,SSE,161,5.0,9.0,21,0.00,,,0.00,448.000000,,2013-05-07 23:22:00,
2013-05-07 18:32:00,78.0,35.0,-100.00,SSE,161,5.0,9.0,21,0.00,,,0.00,448.000000,,2013-05-07 23:32:00,
2013-05-07 18:42:00,78.0,35.0,-100.00,SSE,161,5.0,9.0,21,0.00,,,0.00,448.000000,,2013-05-07 23:42:00,
2013-05-07 18:52:00,78.0,35.0,-100.00,SSE,161,5.0,9.0,21,0.00,,,0.00,448.000000,,2013-05-07 23:52:00,
2013-05-07 19:02:00,72.0,34.0,-100.00,SSW,211,2.0,9.0,25,0.00,,,0.00,241.000000,,2013-05-08 00:02:00,
2013-05-07 19:22:00,72.0,34.0,-100.00,SSW,211,2.0,9.0,25,0.00,,,0.00,241.000000,,2013-05-08 00:22:00,
2013-05-07 19:32:00,72.0,34.0,-100.00,SSW,211,2.0,9.0,25,0.00,,,0.00,241.000000,,2013-05-08 00:32:00,
2013-05-07 19:42:00,72.0,34.0,-100.00,SSW,211,2.0,9.0,25,0.00,,,0.00,241.000000,,2013-05-08 00:42:00,
2013-05-07 19:52:00,72.0,34.0,-100.00,SSW,211,2.0,9.0,25,0.00,,,0.00,241.000000,,2013-05-08 00:52:00,
2013-05-07 20:32:00,60.0,41.0,-100.00,NE,41,0.0,5.0,49,0.00,,,0.00,80.000000,,2013-05-08 01:32:00,
2013-05-07 20:42:00,60.0,41.0,-100.00,NE,41,0.0,5.0,49,0.00,,,0.00,80.000000,,2013-05-08 01:42:00,
2013-05-07 20:52:00,60.0,41.0,-100.00,NE,41,0.0,5.0,49,0.00,,,0.00,80.000000,,2013-05-08 01:52:00,
2013-05-07 21:01:00,60.0,41.0,-100.00,NE,41,0.0,5.0,49,0.00,,,0.00,80.000000,,2013-05-08 02:01:00,
2013-05-07 21:02:00,49.0,41.0,-100.00,NNE,33,0.0,2.0,75,0.00,,,0.00,3.000000,,2013-05-08 02:02:00,
2013-05-07 21:32:00,49.0,41.0,-100.00,NNE,33,0.0,2.0,75,0.00,,,0.00,3.000000,,2013-05-08 02:32:00,
2013-05-07 21:42:00,49.0,41.0,-100.00,NNE,33,0.0,2.0,75,0.00,,,0.00,3.000000,,2013-05-08 02:42:00,
2013-05-07 21:52:00,49.0,41.0,-100.00,NNE,33,0.0,2.0,75,0.00,,,0.00,3.000000,,2013-05-08 02:52:00,
2013-05-07 22:02:00,46.0,41.0,-100.00,NNW,333,1.0,2.0,81,0.00,,,0.00,0.000000,,2013-05-08 03:02:00,
2013-05-07 22:22:00,46.0,41.0,-100.00,NNW,333,1.0,2.0,81,0.00,,,0.00,0.000000,,2013-05-08 03:22:00,
2013-05-07 22:33:00,46.0,41.0,-100.00,NNW,333,1.0,2.0,81,0.00,,,0.00,0.000000,,2013-05-08 03:33:00,
2013-05-07 22:43:00,46.0,41.0,-100.00,NNW,333,1.0,2.0,81,0.00,,,0.00,0.000000,,2013-05-08 03:43:00,
2013-05-07 22:52:00,46.0,41.0,-100.00,NNW,333,1.0,2.0,81,0.00,,,0.00,0.000000,,2013-05-08 03:52:00,
2013-05-07 23:02:00,42.0,38.0,-100.00,NE,43,0.0,2.0,87,0.00,,,0.00,0.000000,,2013-05-08 04:02:00,
2013-05-07 23:33:00,42.0,38.0,-100.00,NE,43,0.0,2.0,87,0.00,,,0.00,0.000000,,2013-05-08 04:33:00,
2013-05-07 23:43:00,42.0,38.0,-100.00,NE,43,0.0,2.0,87,0.00,,,0.00,0.000000,,2013-05-08 04:43:00,
2013-05-07 23:53:00,42.0,38.0,-100.00,NE,43,0.0,2.0,87,0.00,,,0.00,0.000000,,2013-05-08 04:53:00,